Time;durP1;ratioP1;P1;durP2;ratioP2;P2;SDS_P1;SDS_P2;PMS_P1;PMS_P2;Temp;Humidity;BMP_temperature;BMP_pressure;BME280_temperature;BME280_humidity;BME280_pressure;Samples;Min_cycle;Max_cycle;Signal;HPM_P1;HPM_P2
2022/10/30 00:00:22;;;;;;;16.63;13.00;;;13.30;99.90;;;;;;7367175;19;20078;-59
2022/10/30 00:02:49;;;;;;;18.63;13.07;;;13.40;99.90;;;;;;7364085;19;20023;-60
2022/10/30 00:05:15;;;;;;;21.33;12.55;;;13.40;99.90;;;;;;7360558;19;20019;-60
2022/10/30 00:07:42;;;;;;;20.73;13.70;;;13.40;99.90;;;;;;7362615;19;20066;-60
2022/10/30 00:10:09;;;;;;;20.65;13.57;;;13.50;99.90;;;;;;7364830;19;20674;-60
2022/10/30 00:12:35;;;;;;;16.42;12.23;;;13.50;99.90;;;;;;7365452;19;20367;-60
2022/10/30 00:15:02;;;;;;;22.20;13.32;;;13.50;99.90;;;;;;7365246;19;20090;-59
2022/10/30 00:17:28;;;;;;;19.77;12.45;;;13.50;99.90;;;;;;7363595;19;20453;-59
2022/10/30 00:19:54;;;;;;;18.55;13.20;;;13.50;99.90;;;;;;7366804;19;20056;-59
2022/10/30 00:22:21;;;;;;;19.40;12.95;;;13.50;99.90;;;;;;7363933;19;20045;-59
2022/10/30 00:24:47;;;;;;;15.88;12.32;;;13.60;99.90;;;;;;7365887;19;20623;-60
2022/10/30 00:27:13;;;;;;;17.27;11.73;;;13.60;99.90;;;;;;7362983;19;20026;-63
2022/10/30 00:29:40;;;;;;;17.95;12.38;;;13.60;99.90;;;;;;7370314;19;20015;-60
2022/10/30 00:32:07;;;;;;;18.83;12.73;;;13.70;99.90;;;;;;7365606;19;20026;-60
2022/10/30 00:34:33;;;;;;;21.35;12.07;;;13.60;99.90;;;;;;7369586;19;20345;-59
2022/10/30 00:36:59;;;;;;;19.25;12.00;;;13.60;99.90;;;;;;7367565;19;20019;-60
2022/10/30 00:39:26;;;;;;;19.08;12.23;;;13.60;99.90;;;;;;7365431;19;20035;-59
2022/10/30 00:41:52;;;;;;;17.23;13.07;;;13.50;99.90;;;;;;7362261;19;20036;-59
2022/10/30 00:44:39;;;;;;;15.00;11.60;;;13.40;99.90;;;;;;7360255;19;20026;-59
2022/10/30 00:47:16;;;;;;;17.80;11.30;;;13.40;99.90;;;;;;7362626;19;20382;-59
2022/10/30 00:49:52;;;;;;;18.63;11.80;;;13.30;99.90;;;;;;7362118;19;20074;-60
2022/10/30 00:52:22;;;;;;;17.17;11.60;;;13.30;99.90;;;;;;7364178;19;20061;-60
2022/10/30 00:54:49;;;;;;;18.77;12.02;;;13.20;99.90;;;;;;7360469;19;20018;-59
2022/10/30 00:57:17;;;;;;;21.23;12.18;;;13.20;99.90;;;;;;7367413;19;20022;-60
2022/10/30 00:59:44;;;;;;;16.30;11.65;;;13.20;99.90;;;;;;7362911;19;20759;-60
2022/10/30 01:02:11;;;;;;;20.05;12.15;;;13.10;99.90;;;;;;7367360;19;20034;-60
2022/10/30 01:04:38;;;;;;;16.20;12.20;;;13.10;99.90;;;;;;7364330;19;20034;-60
2022/10/30 01:07:15;;;;;;;15.25;12.43;;;13.00;99.90;;;;;;7360463;19;20014;-60
2022/10/30 01:09:42;;;;;;;21.55;12.02;;;13.00;99.90;;;;;;7365701;19;20019;-60
2022/10/30 01:12:08;;;;;;;17.30;11.95;;;12.90;99.90;;;;;;7366850;19;20117;-60
2022/10/30 01:14:38;;;;;;;20.17;12.18;;;12.90;99.90;;;;;;7364747;19;20493;-60
2022/10/30 01:17:13;;;;;;;18.40;12.05;;;13.00;99.90;;;;;;7363497;19;20513;-61
2022/10/30 01:19:47;;;;;;;15.60;11.55;;;13.00;99.90;;;;;;7363208;19;20027;-60
2022/10/30 01:22:58;;;;;;;19.05;12.55;;;13.10;99.90;;;;;;7368356;19;20014;-60
2022/10/30 01:25:27;;;;;;;16.73;11.60;;;13.10;99.90;;;;;;7363027;19;20022;-59
2022/10/30 01:28:50;;;;;;;16.27;11.80;;;13.10;99.90;;;;;;7362618;19;20026;-60
2022/10/30 01:31:43;;;;;;;20.73;12.40;;;13.10;99.90;;;;;;7358498;19;20018;-59
2022/10/30 01:34:29;;;;;;;15.25;11.18;;;13.00;99.90;;;;;;7364565;19;20345;-59
2022/10/30 01:37:17;;;;;;;20.42;11.57;;;13.10;99.90;;;;;;7365627;19;20035;-59
2022/10/30 01:39:44;;;;;;;18.33;11.88;;;13.00;99.90;;;;;;7365168;19;20424;-60
2022/10/30 01:42:36;;;;;;;19.63;13.30;;;12.90;99.90;;;;;;7362842;19;20138;-59
2022/10/30 01:45:04;;;;;;;16.88;11.82;;;12.90;99.90;;;;;;7358497;19;20035;-59
2022/10/30 01:48:06;;;;;;;20.65;11.32;;;12.80;99.90;;;;;;7355174;19;20026;-59
2022/10/30 01:51:29;;;;;;;20.02;12.50;;;12.80;99.90;;;;;;7354580;19;20021;-59
2022/10/30 01:54:21;;;;;;;25.52;13.63;;;12.80;99.90;;;;;;7355217;19;20056;-59
2022/10/30 01:57:06;;;;;;;16.42;12.90;;;12.80;99.90;;;;;;7367213;19;20380;-59
2022/10/30 01:59:42;;;;;;;18.00;12.20;;;12.70;99.90;;;;;;7365162;19;20018;-59
2022/10/30 02:02:09;;;;;;;18.75;11.32;;;12.70;99.90;;;;;;7364242;19;20117;-60
2022/10/30 02:04:37;;;;;;;21.70;13.02;;;12.70;99.90;;;;;;7365228;19;20015;-60
2022/10/30 02:07:05;;;;;;;15.73;11.60;;;12.60;99.90;;;;;;7362398;19;20022;-59
2022/10/30 02:09:38;;;;;;;18.00;12.88;;;12.60;99.90;;;;;;7365293;19;20033;-59
2022/10/30 02:12:05;;;;;;;23.80;12.77;;;12.60;99.90;;;;;;7367437;19;20018;-60
2022/10/30 02:14:40;;;;;;;22.88;12.65;;;12.70;99.90;;;;;;7362485;19;20494;-60
2022/10/30 02:17:08;;;;;;;20.58;11.98;;;12.70;99.90;;;;;;7368223;19;20026;-60
2022/10/30 02:19:34;;;;;;;19.65;13.00;;;12.70;99.90;;;;;;7364059;19;20018;-61
2022/10/30 02:22:03;;;;;;;18.08;12.18;;;12.70;99.90;;;;;;7367701;19;20490;-59
2022/10/30 02:24:30;;;;;;;18.13;12.43;;;12.60;99.90;;;;;;7365199;19;20022;-58
2022/10/30 02:26:57;;;;;;;18.58;11.98;;;12.60;99.90;;;;;;7366046;19;20783;-58
2022/10/30 02:29:23;;;;;;;20.85;13.13;;;12.50;99.90;;;;;;7365337;19;21002;-58
2022/10/30 02:31:49;;;;;;;20.00;12.63;;;12.50;99.90;;;;;;7366232;19;20398;-58
2022/10/30 02:34:16;;;;;;;20.23;12.27;;;12.60;99.90;;;;;;7361348;19;20021;-58
2022/10/30 02:36:43;;;;;;;23.20;13.13;;;12.60;99.90;;;;;;7364477;19;20104;-59
2022/10/30 02:39:10;;;;;;;20.98;13.23;;;12.60;99.90;;;;;;7365283;19;20494;-58
2022/10/30 02:41:37;;;;;;;15.52;11.27;;;12.60;99.90;;;;;;7363404;19;20676;-58
2022/10/30 02:44:05;;;;;;;18.42;13.55;;;12.60;99.90;;;;;;7361901;19;20362;-59
2022/10/30 02:46:33;;;;;;;19.52;12.65;;;12.60;99.90;;;;;;7358863;19;20060;-59
2022/10/30 02:49:00;;;;;;;16.10;11.73;;;12.50;99.90;;;;;;7363738;19;20345;-63
2022/10/30 02:51:27;;;;;;;18.15;12.02;;;12.50;99.90;;;;;;7364703;19;20014;-59
2022/10/30 02:53:53;;;;;;;20.67;11.95;;;12.40;99.90;;;;;;7366136;19;20022;-59
2022/10/30 02:56:19;;;;;;;17.83;11.43;;;12.40;99.90;;;;;;7359012;19;20019;-58
2022/10/30 02:58:46;;;;;;;20.23;11.30;;;12.40;99.90;;;;;;7369619;19;20094;-58
2022/10/30 03:01:15;;;;;;;17.60;11.35;;;12.30;99.90;;;;;;7378945;19;20371;-58
2022/10/30 03:03:42;;;;;;;17.45;11.43;;;12.30;99.90;;;;;;7374785;19;20549;-58
2022/10/30 03:06:11;;;;;;;19.13;12.10;;;12.30;99.90;;;;;;7369881;19;20014;-59
2022/10/30 03:08:38;;;;;;;21.63;13.15;;;12.30;99.90;;;;;;7375840;19;20378;-59
2022/10/30 03:11:10;;;;;;;17.42;11.65;;;12.20;99.90;;;;;;7375190;19;20022;-58
2022/10/30 03:13:39;;;;;;;24.85;12.43;;;12.20;99.90;;;;;;7377752;19;20019;-59
2022/10/30 03:16:12;;;;;;;17.02;10.80;;;12.20;99.90;;;;;;7374079;19;20102;-58
2022/10/30 03:18:39;;;;;;;19.95;12.88;;;12.10;99.90;;;;;;7375725;19;20018;-59
2022/10/30 03:21:12;;;;;;;18.25;11.57;;;12.10;99.90;;;;;;7373398;19;20019;-59
2022/10/30 03:23:38;;;;;;;17.05;12.50;;;12.10;99.90;;;;;;7377905;19;20043;-60
2022/10/30 03:26:05;;;;;;;15.07;10.30;;;12.10;99.90;;;;;;7368667;19;20536;-59
2022/10/30 03:28:35;;;;;;;20.30;11.73;;;12.00;99.90;;;;;;7376542;19;20432;-59
2022/10/30 03:31:06;;;;;;;20.02;13.35;;;12.00;99.90;;;;;;7374304;19;20422;-59
2022/10/30 03:33:33;;;;;;;19.77;12.05;;;11.90;99.90;;;;;;7373897;19;20018;-59
2022/10/30 03:36:01;;;;;;;18.08;12.55;;;11.90;99.90;;;;;;7375790;19;20022;-59
2022/10/30 03:38:28;;;;;;;15.57;11.75;;;11.90;99.90;;;;;;7372573;19;20018;-59
2022/10/30 03:40:54;;;;;;;20.67;12.50;;;11.80;99.90;;;;;;7374847;19;20018;-59
2022/10/30 03:43:21;;;;;;;22.35;14.13;;;11.80;99.90;;;;;;7372867;19;20519;-59
2022/10/30 03:45:50;;;;;;;20.73;13.60;;;11.80;99.90;;;;;;7372901;19;20544;-58
2022/10/30 03:48:18;;;;;;;18.83;12.45;;;11.90;99.90;;;;;;7373934;19;20014;-60
2022/10/30 03:50:45;;;;;;;16.52;11.75;;;11.90;99.90;;;;;;7375781;19;20070;-59
2022/10/30 03:53:12;;;;;;;19.45;13.20;;;11.90;99.90;;;;;;7373484;19;20018;-60
2022/10/30 03:55:39;;;;;;;17.98;12.00;;;11.90;99.90;;;;;;7374768;19;20398;-59
2022/10/30 03:58:26;;;;;;;20.25;13.48;;;11.90;99.90;;;;;;7374517;19;20599;-59
2022/10/30 04:01:03;;;;;;;18.52;13.80;;;11.80;99.90;;;;;;7374560;19;20561;-59
2022/10/30 04:03:32;;;;;;;20.90;12.20;;;11.90;99.90;;;;;;7374220;19;20018;-59
2022/10/30 04:05:58;;;;;;;18.50;12.80;;;11.80;99.90;;;;;;7371212;19;20010;-58
2022/10/30 04:08:27;;;;;;;20.08;13.63;;;11.90;99.90;;;;;;7376096;19;20043;-58
2022/10/30 04:10:53;;;;;;;23.73;13.30;;;11.90;99.90;;;;;;7375487;19;20015;-59
2022/10/30 04:13:20;;;;;;;19.55;13.00;;;11.80;99.90;;;;;;7372361;19;20029;-59
2022/10/30 04:15:51;;;;;;;23.55;13.15;;;11.80;99.90;;;;;;7372587;19;20371;-59
2022/10/30 04:18:19;;;;;;;20.75;13.27;;;11.70;99.90;;;;;;7373439;19;20034;-59
2022/10/30 04:20:46;;;;;;;19.60;12.63;;;11.70;99.90;;;;;;7375518;19;20359;-59
2022/10/30 04:23:17;;;;;;;19.27;11.13;;;11.70;99.90;;;;;;7374344;19;20041;-59
2022/10/30 04:25:44;;;;;;;14.60;11.13;;;11.70;99.90;;;;;;7371613;19;20098;-59
2022/10/30 04:28:12;;;;;;;19.55;11.98;;;11.60;99.90;;;;;;7372879;19;20357;-59
2022/10/30 04:30:39;;;;;;;16.60;12.77;;;11.60;99.90;;;;;;7372762;19;20022;-59
2022/10/30 04:33:09;;;;;;;15.55;12.18;;;11.70;99.90;;;;;;7375295;19;20026;-59
2022/10/30 04:35:36;;;;;;;22.77;13.80;;;11.60;99.90;;;;;;7371102;19;20612;-59
2022/10/30 04:38:13;;;;;;;19.13;13.00;;;11.60;99.90;;;;;;7371247;19;20060;-59
2022/10/30 04:40:42;;;;;;;20.33;13.95;;;11.60;99.90;;;;;;7372531;19;20021;-59
2022/10/30 04:43:11;;;;;;;18.90;12.30;;;11.60;99.90;;;;;;7371566;19;20026;-59
2022/10/30 04:45:39;;;;;;;20.52;13.95;;;11.70;99.90;;;;;;7372367;19;20040;-59
2022/10/30 04:48:13;;;;;;;19.63;13.57;;;11.70;99.90;;;;;;7374042;19;20015;-59
2022/10/30 04:50:42;;;;;;;18.85;14.02;;;11.70;99.90;;;;;;7372865;19;20014;-59
2022/10/30 04:53:14;;;;;;;19.08;13.43;;;11.70;99.90;;;;;;7372854;19;20021;-59
2022/10/30 04:55:42;;;;;;;19.48;13.52;;;11.60;99.90;;;;;;7374405;19;20493;-59
2022/10/30 04:58:10;;;;;;;22.13;13.48;;;11.60;99.90;;;;;;7371607;19;20428;-59
2022/10/30 05:00:38;;;;;;;18.90;12.60;;;11.60;99.90;;;;;;7372137;19;20036;-60
2022/10/30 05:03:23;;;;;;;21.38;13.55;;;11.60;99.90;;;;;;7373663;19;20082;-60
2022/10/30 05:06:05;;;;;;;18.75;13.30;;;11.60;99.90;;;;;;7367503;19;20019;-60
2022/10/30 05:08:32;;;;;;;20.52;12.25;;;11.60;99.90;;;;;;7374439;19;20014;-60
2022/10/30 05:11:05;;;;;;;17.30;13.52;;;11.50;99.90;;;;;;7373394;19;20450;-60
2022/10/30 05:13:31;;;;;;;17.67;13.35;;;11.50;99.90;;;;;;7373168;19;20074;-58
2022/10/30 05:15:57;;;;;;;20.55;13.10;;;11.50;99.90;;;;;;7368863;19;20339;-59
2022/10/30 05:18:23;;;;;;;22.80;14.88;;;11.50;99.90;;;;;;7369624;19;20021;-59
2022/10/30 05:20:50;;;;;;;23.35;15.88;;;11.40;99.90;;;;;;7374315;19;20422;-59
2022/10/30 05:23:16;;;;;;;19.23;13.50;;;11.40;99.90;;;;;;7372175;19;20018;-59
2022/10/30 05:25:42;;;;;;;18.90;12.88;;;11.40;99.90;;;;;;7374641;19;20514;-58
2022/10/30 05:28:11;;;;;;;26.48;16.23;;;11.40;99.90;;;;;;7371458;19;20369;-59
2022/10/30 05:30:44;;;;;;;17.38;13.05;;;11.40;99.90;;;;;;7367113;19;20025;-58
2022/10/30 05:33:23;;;;;;;18.70;14.65;;;11.40;99.90;;;;;;7373045;19;20027;-60
2022/10/30 05:35:49;;;;;;;18.40;13.80;;;11.40;99.90;;;;;;7370218;19;20015;-59
2022/10/30 05:38:16;;;;;;;17.58;13.15;;;11.40;99.90;;;;;;7368027;19;20015;-59
2022/10/30 05:40:45;;;;;;;20.95;13.20;;;11.30;99.90;;;;;;7368944;19;20018;-60
2022/10/30 05:43:12;;;;;;;21.40;13.05;;;11.30;99.90;;;;;;7366568;19;20025;-60
2022/10/30 05:45:39;;;;;;;19.05;14.05;;;11.30;99.90;;;;;;7367803;19;20114;-59
2022/10/30 05:48:07;;;;;;;24.25;13.73;;;11.30;99.90;;;;;;7370279;19;20672;-59
2022/10/30 05:50:41;;;;;;;20.15;13.60;;;11.20;99.90;;;;;;7370712;19;20486;-59
2022/10/30 05:53:26;;;;;;;23.65;14.50;;;11.30;99.90;;;;;;7367889;19;20330;-59
2022/10/30 05:55:58;;;;;;;20.40;12.82;;;11.30;99.90;;;;;;7372549;19;20010;-59
2022/10/30 05:58:28;;;;;;;20.30;13.75;;;11.30;99.90;;;;;;7368395;19;20022;-59
2022/10/30 06:00:57;;;;;;;20.05;14.10;;;11.20;99.90;;;;;;7368520;19;20018;-59
2022/10/30 06:03:42;;;;;;;19.50;12.95;;;11.20;99.90;;;;;;7367341;19;20792;-58
2022/10/30 06:06:10;;;;;;;26.50;15.57;;;11.20;99.90;;;;;;7361217;19;20014;-59
2022/10/30 06:08:36;;;;;;;22.90;14.40;;;11.20;99.90;;;;;;7361602;19;20026;-59
2022/10/30 06:11:16;;;;;;;24.63;13.52;;;11.10;99.90;;;;;;7363071;19;20019;-60
2022/10/30 06:13:47;;;;;;;19.92;14.05;;;11.10;99.90;;;;;;7359907;19;21126;-59
2022/10/30 06:16:15;;;;;;;17.02;12.93;;;11.10;99.90;;;;;;7368547;19;20570;-59
2022/10/30 06:19:17;;;;;;;20.95;12.90;;;11.10;99.90;;;;;;7360961;19;20018;-60
2022/10/30 06:21:44;;;;;;;22.30;13.95;;;11.10;99.90;;;;;;7365319;19;20477;-60
2022/10/30 06:24:26;;;;;;;17.15;12.93;;;11.10;99.90;;;;;;7364437;19;20028;-59
2022/10/30 06:27:08;;;;;;;20.45;13.93;;;11.10;99.90;;;;;;7361029;19;20403;-59
2022/10/30 06:29:34;;;;;;;19.73;14.35;;;11.10;99.90;;;;;;7359260;19;20018;-59
2022/10/30 06:32:01;;;;;;;17.48;13.43;;;11.10;99.90;;;;;;7365558;19;20019;-60
2022/10/30 06:34:27;;;;;;;20.40;13.88;;;11.10;99.90;;;;;;7366086;19;20023;-59
2022/10/30 06:36:54;;;;;;;24.45;14.10;;;11.10;99.90;;;;;;7365226;19;20098;-60
2022/10/30 06:39:21;;;;;;;19.55;14.15;;;11.10;99.90;;;;;;7364028;19;20018;-59
2022/10/30 06:42:04;;;;;;;18.08;13.95;;;11.10;99.90;;;;;;7372419;19;20022;-59
2022/10/30 06:44:51;;;;;;;19.35;12.82;;;11.10;99.90;;;;;;7370664;19;20015;-59
2022/10/30 06:47:20;;;;;;;21.27;15.02;;;11.10;99.90;;;;;;7371411;19;20377;-59
2022/10/30 06:49:48;;;;;;;22.65;14.52;;;11.10;99.90;;;;;;7373413;19;20581;-59
2022/10/30 06:52:16;;;;;;;24.63;14.38;;;11.20;99.90;;;;;;7371675;19;20021;-59
2022/10/30 06:54:43;;;;;;;22.10;13.07;;;11.20;99.90;;;;;;7372758;19;20050;-59
2022/10/30 06:57:28;;;;;;;20.33;13.30;;;11.20;99.90;;;;;;7372552;19;20034;-59
2022/10/30 07:00:30;;;;;;;23.90;15.10;;;11.20;99.90;;;;;;7368906;19;20014;-59
2022/10/30 07:03:15;;;;;;;20.95;13.18;;;11.30;99.90;;;;;;7368863;19;20031;-58
2022/10/30 07:05:42;;;;;;;20.60;13.23;;;11.30;99.90;;;;;;7371709;19;20023;-58
2022/10/30 07:08:09;;;;;;;15.95;11.95;;;11.30;99.90;;;;;;7373271;19;20089;-60
2022/10/30 07:10:36;;;;;;;22.33;13.00;;;11.30;99.90;;;;;;7370247;19;20540;-59
2022/10/30 07:13:34;;;;;;;16.48;13.05;;;11.40;99.90;;;;;;7367634;19;20019;-59
2022/10/30 07:16:23;;;;;;;18.58;12.88;;;11.40;99.90;;;;;;7372348;19;20478;-59
2022/10/30 07:18:50;;;;;;;17.02;14.00;;;11.40;99.90;;;;;;7370246;19;20019;-59
2022/10/30 07:21:17;;;;;;;22.40;12.48;;;11.50;99.90;;;;;;7371847;19;20641;-59
2022/10/30 07:23:47;;;;;;;20.55;14.27;;;11.60;99.90;;;;;;7368612;19;20518;-60
2022/10/30 07:26:36;;;;;;;18.13;12.10;;;11.60;99.90;;;;;;7367986;19;20477;-59
2022/10/30 07:29:06;;;;;;;18.23;12.30;;;11.60;99.90;;;;;;7369814;19;20023;-60
2022/10/30 07:31:46;;;;;;;19.08;13.13;;;11.70;99.90;;;;;;7371564;19;20018;-62
2022/10/30 07:34:53;;;;;;;19.05;13.60;;;11.80;99.90;;;;;;7365607;19;20374;-58
2022/10/30 07:37:27;;;;;;;19.23;12.95;;;11.80;99.90;;;;;;7367808;19;20593;-59
2022/10/30 07:40:20;;;;;;;20.42;13.52;;;11.90;99.90;;;;;;7368376;19;20066;-59
2022/10/30 07:42:57;;;;;;;19.00;13.68;;;12.00;99.90;;;;;;7368613;19;20022;-59
2022/10/30 07:45:44;;;;;;;18.67;13.43;;;12.10;99.90;;;;;;7365223;19;20029;-59
2022/10/30 07:48:34;;;;;;;17.63;13.40;;;12.20;99.90;;;;;;7364631;19;20143;-59
2022/10/30 07:51:08;;;;;;;22.30;15.65;;;12.30;99.90;;;;;;7367829;19;20542;-59
2022/10/30 07:53:34;;;;;;;24.77;15.43;;;12.40;99.90;;;;;;7368193;19;20025;-59
2022/10/30 07:56:01;;;;;;;17.98;14.82;;;12.50;99.90;;;;;;7368265;19;20116;-58
2022/10/30 07:58:46;;;;;;;20.15;14.48;;;12.80;99.90;;;;;;7369541;19;20019;-59
2022/10/30 08:01:35;;;;;;;19.98;14.20;;;13.10;99.90;;;;;;7370080;19;20424;-57
2022/10/30 08:04:15;;;;;;;21.38;14.73;;;13.40;99.90;;;;;;7368934;19;20014;-58
2022/10/30 08:06:44;;;;;;;17.75;13.02;;;13.60;99.90;;;;;;7361643;19;20011;-59
2022/10/30 08:09:11;;;;;;;18.98;12.60;;;13.70;99.90;;;;;;7341365;19;20019;-59
2022/10/30 08:11:37;;;;;;;23.25;14.07;;;14.10;99.90;;;;;;7360469;19;20573;-59
2022/10/30 08:14:04;;;;;;;18.63;12.45;;;14.80;99.90;;;;;;7363135;19;20023;-59
2022/10/30 08:16:30;;;;;;;19.67;12.18;;;15.40;99.90;;;;;;7364049;19;20014;-60
2022/10/30 08:18:57;;;;;;;17.45;12.20;;;16.00;99.90;;;;;;7360452;19;20018;-59
2022/10/30 08:21:25;;;;;;;16.50;12.10;;;16.60;99.90;;;;;;7364362;19;20035;-60
2022/10/30 08:24:11;;;;;;;16.63;11.85;;;17.10;99.90;;;;;;7362495;19;20061;-60
2022/10/30 08:30:33;;;;;;;14.00;10.07;;;18.10;99.90;;;;;;7362873;19;19994;-61
2022/10/30 08:33:03;;;;;;;16.98;11.48;;;18.50;99.90;;;;;;7361839;19;20022;-62
2022/10/30 08:35:55;;;;;;;15.15;10.20;;;18.60;99.90;;;;;;7359058;19;20029;-60
2022/10/30 08:38:22;;;;;;;14.10;9.88;;;18.90;99.90;;;;;;7360910;19;20019;-60
2022/10/30 08:41:01;;;;;;;16.30;10.35;;;19.20;99.90;;;;;;7361177;19;20019;-64
2022/10/30 08:43:29;;;;;;;15.15;9.88;;;19.50;99.90;;;;;;7356642;19;20018;-62
2022/10/30 08:45:57;;;;;;;14.20;9.48;;;19.80;99.90;;;;;;7359116;19;20018;-62
2022/10/30 08:48:24;;;;;;;18.30;10.88;;;20.00;99.90;;;;;;7355954;19;20549;-56
2022/10/30 08:50:50;;;;;;;16.35;10.13;;;20.50;99.90;;;;;;7365197;19;20035;-64
2022/10/30 08:53:25;;;;;;;13.73;9.38;;;20.80;99.90;;;;;;7362477;19;21123;-62
2022/10/30 08:55:54;;;;;;;13.70;9.02;;;21.20;99.90;;;;;;7367983;19;20376;-59
2022/10/30 08:58:25;;;;;;;17.70;9.57;;;21.10;99.90;;;;;;7368120;19;20049;-59
2022/10/30 09:00:52;;;;;;;12.93;9.55;;;21.00;99.90;;;;;;7368176;19;20011;-61
2022/10/30 09:03:37;;;;;;;15.05;9.23;;;21.20;99.90;;;;;;7364290;19;20034;-57
2022/10/30 09:06:20;;;;;;;15.10;10.48;;;21.20;99.90;;;;;;7368540;19;20014;-57
2022/10/30 09:09:14;;;;;;;14.98;9.35;;;21.60;99.90;;;;;;7367290;19;20019;-60
2022/10/30 09:11:46;;;;;;;18.30;9.55;;;22.00;99.90;;;;;;7368557;19;20514;-60
2022/10/30 09:14:12;;;;;;;14.50;9.70;;;22.30;99.90;;;;;;7365862;19;20022;-57
2022/10/30 09:16:38;;;;;;;13.00;9.07;;;22.70;99.90;;;;;;7368007;19;20081;-58
2022/10/30 09:19:05;;;;;;;18.10;9.60;;;22.60;99.90;;;;;;7369928;19;20015;-57
2022/10/30 09:21:31;;;;;;;13.57;9.32;;;22.70;99.90;;;;;;7367273;19;20022;-53
2022/10/30 09:23:58;;;;;;;16.15;10.43;;;22.60;99.90;;;;;;7367331;19;20039;-61
2022/10/30 09:26:36;;;;;;;15.48;9.70;;;22.70;99.90;;;;;;7362173;19;20421;-61
2022/10/30 09:29:32;;;;;;;16.20;10.30;;;22.80;99.90;;;;;;7362312;19;20875;-60
2022/10/30 09:32:07;;;;;;;12.07;9.32;;;23.00;99.90;;;;;;7366427;19;20101;-56
2022/10/30 09:34:40;;;;;;;14.85;9.65;;;23.20;99.90;;;;;;7368280;19;20441;-57
2022/10/30 09:37:17;;;;;;;14.32;9.18;;;23.60;99.90;;;;;;7370573;19;20019;-56
2022/10/30 09:39:45;;;;;;;14.35;8.63;;;23.70;99.90;;;;;;7367107;19;20458;-57
2022/10/30 09:42:36;;;;;;;19.77;9.95;;;24.10;99.90;;;;;;7369018;19;20025;-61
2022/10/30 09:45:26;;;;;;;15.48;9.40;;;24.30;99.90;;;;;;7368764;19;20022;-61
2022/10/30 09:48:13;;;;;;;17.23;9.30;;;24.50;99.90;;;;;;7366796;19;20601;-61
2022/10/30 09:51:11;;;;;;;14.70;9.13;;;24.80;99.90;;;;;;7365509;19;20019;-61
2022/10/30 09:53:55;;;;;;;13.25;8.85;;;24.60;99.90;;;;;;7364604;19;20047;-60
2022/10/30 09:56:32;;;;;;;13.48;8.70;;;24.80;99.90;;;;;;7367629;19;20021;-60
2022/10/30 09:59:13;;;;;;;14.98;8.80;;;25.00;99.90;;;;;;7369616;19;20019;-60
2022/10/30 10:01:52;;;;;;;17.17;8.93;;;25.10;99.90;;;;;;7363362;19;20023;-58
2022/10/30 10:04:32;;;;;;;14.20;9.70;;;25.30;99.90;;;;;;7365782;19;20010;-57
2022/10/30 10:07:24;;;;;;;14.88;8.88;;;25.50;99.90;;;;;;7362958;19;20448;-58
2022/10/30 10:10:00;;;;;;;15.45;9.07;;;25.90;99.90;;;;;;7367144;19;20015;-58
2022/10/30 10:12:44;;;;;;;14.07;8.50;;;26.00;99.90;;;;;;7362784;19;20023;-62
2022/10/30 10:15:25;;;;;;;17.42;9.20;;;26.00;99.90;;;;;;7369928;19;20424;-58
2022/10/30 10:17:54;;;;;;;13.55;8.68;;;26.40;99.90;;;;;;7376356;19;20022;-58
2022/10/30 10:20:32;;;;;;;16.10;9.52;;;26.70;99.90;;;;;;7368437;19;20018;-58
2022/10/30 10:23:08;;;;;;;13.02;9.82;;;26.50;99.90;;;;;;7377040;19;20018;-59
2022/10/30 10:25:38;;;;;;;15.50;8.52;;;26.80;99.90;;;;;;7374161;19;20015;-59
2022/10/30 10:28:18;;;;;;;14.07;9.20;;;27.00;99.90;;;;;;7375615;19;20022;-58
2022/10/30 10:30:54;;;;;;;12.77;8.68;;;27.30;99.90;;;;;;7369674;19;20026;-59
2022/10/30 10:33:32;;;;;;;11.98;8.55;;;27.00;99.90;;;;;;7370930;19;20022;-58
2022/10/30 10:36:05;;;;;;;18.02;8.55;;;27.10;99.90;;;;;;7377626;19;20513;-58
2022/10/30 10:39:04;;;;;;;12.52;8.57;;;27.20;99.90;;;;;;7374063;19;20092;-58
2022/10/30 10:41:45;;;;;;;13.27;9.02;;;27.40;99.90;;;;;;7375016;19;20829;-59
2022/10/30 10:44:30;;;;;;;10.98;8.43;;;27.60;99.90;;;;;;7369903;19;20049;-59
2022/10/30 10:47:00;;;;;;;14.75;8.73;;;27.90;99.30;;;;;;7366880;19;20534;-58
2022/10/30 10:49:42;;;;;;;15.23;9.35;;;28.00;99.90;;;;;;7370490;19;20022;-59
2022/10/30 10:52:12;;;;;;;13.68;7.85;;;27.90;99.30;;;;;;7372591;19;20034;-58
2022/10/30 10:54:48;;;;;;;;;;;28.10;99.90;;;;;;7369400;19;20022;-59
2022/10/30 10:57:28;;;;;;;12.50;9.07;;;28.10;98.10;;;;;;7373012;19;20378;-59
2022/10/30 11:00:07;;;;;;;12.77;8.43;;;28.50;97.80;;;;;;7373482;19;20023;-58
2022/10/30 11:02:41;;;;;;;11.80;7.85;;;28.70;98.20;;;;;;7372600;19;20456;-57
2022/10/30 11:05:18;;;;;;;14.00;8.13;;;28.50;97.80;;;;;;7368254;19;20050;-57
2022/10/30 11:07:49;;;;;;;15.02;8.80;;;28.70;98.90;;;;;;7370535;19;20090;-57
2022/10/30 11:10:18;;;;;;;11.68;7.63;;;28.60;98.80;;;;;;7370237;19;20579;-57
2022/10/30 11:12:44;;;;;;;10.52;7.40;;;28.60;98.90;;;;;;7368563;19;20022;-59
2022/10/30 11:15:40;;;;;;;13.30;8.73;;;28.60;99.10;;;;;;7369838;19;20018;-57
2022/10/30 11:18:09;;;;;;;12.95;7.70;;;28.60;98.00;;;;;;7370312;19;20035;-57
2022/10/30 11:20:40;;;;;;;11.35;7.90;;;28.10;99.90;;;;;;7367425;19;20026;-57
2022/10/30 11:23:29;;;;;;;13.05;7.88;;;27.80;99.90;;;;;;7366169;19;20014;-57
2022/10/30 11:25:56;;;;;;;10.75;6.88;;;27.70;99.90;;;;;;7363209;19;20474;-58
2022/10/30 11:28:37;;;;;;;13.90;6.95;;;27.60;99.90;;;;;;7368401;19;20500;-58
2022/10/30 11:31:33;;;;;;;15.65;11.85;;;27.70;99.90;;;;;;7372085;19;20086;-58
2022/10/30 11:34:12;;;;;;;13.55;6.93;;;27.80;99.90;;;;;;7367774;19;20015;-58
2022/10/30 11:36:39;;;;;;;10.95;6.93;;;28.10;99.90;;;;;;7368457;19;20360;-58
2022/10/30 11:39:22;;;;;;;12.82;7.13;;;27.70;99.90;;;;;;7364020;19;20042;-58
2022/10/30 11:42:14;;;;;;;13.95;7.43;;;27.80;99.90;;;;;;7367317;19;20015;-59
2022/10/30 11:44:44;;;;;;;13.30;7.40;;;28.00;99.90;;;;;;7362220;19;20493;-61
2022/10/30 11:47:14;;;;;;;14.68;12.30;;;28.60;99.90;;;;;;7370160;19;20101;-59
2022/10/30 11:49:53;;;;;;;12.70;6.15;;;28.90;98.60;;;;;;7367182;19;20014;-58
2022/10/30 11:52:21;;;;;;;10.13;5.68;;;28.60;96.70;;;;;;7369163;19;20387;-58
2022/10/30 11:55:08;;;;;;;14.35;6.55;;;28.50;98.60;;;;;;7367778;19;20565;-59
2022/10/30 11:57:40;;;;;;;16.67;10.43;;;28.60;97.70;;;;;;7366112;19;20472;-58
2022/10/30 12:00:25;;;;;;;13.60;6.70;;;28.40;97.60;;;;;;7365433;19;20014;-58
2022/10/30 12:02:54;;;;;;;13.52;6.70;;;27.80;98.50;;;;;;7356679;19;20556;-58
2022/10/30 12:05:34;;;;;;;12.70;7.07;;;27.60;99.60;;;;;;7362955;19;20031;-58
2022/10/30 12:08:07;;;;;;;12.75;8.10;;;27.60;98.90;;;;;;7358991;19;20458;-59
2022/10/30 12:10:41;;;;;;;9.52;6.32;;;27.90;99.20;;;;;;7367146;19;20025;-58
2022/10/30 12:13:14;;;;;;;14.20;7.20;;;27.50;99.90;;;;;;7363803;19;20029;-58
2022/10/30 12:15:41;;;;;;;11.98;7.05;;;27.50;99.90;;;;;;7365941;19;20027;-58
2022/10/30 12:18:21;;;;;;;13.57;8.57;;;27.40;99.90;;;;;;7367402;19;20500;-59
2022/10/30 12:20:52;;;;;;;17.95;12.77;;;27.30;99.90;;;;;;7369468;19;20018;-56
2022/10/30 12:23:24;;;;;;;13.30;7.15;;;27.60;99.90;;;;;;7367343;19;20081;-56
2022/10/30 12:26:08;;;;;;;11.00;6.90;;;27.60;99.90;;;;;;7367196;19;20090;-56
2022/10/30 12:28:35;;;;;;;14.68;6.95;;;27.40;99.90;;;;;;7368353;19;20022;-58
2022/10/30 12:31:12;;;;;;;12.57;7.70;;;26.90;99.90;;;;;;7370428;19;20547;-58
2022/10/30 12:34:01;;;;;;;10.75;6.43;;;26.20;99.90;;;;;;7360148;19;20018;-56
2022/10/30 12:36:34;;;;;;;11.82;6.63;;;25.50;99.90;;;;;;7365769;19;20470;-59
2022/10/30 12:39:15;;;;;;;14.65;7.10;;;25.00;99.90;;;;;;7363856;19;20054;-57
2022/10/30 12:41:44;;;;;;;9.43;6.15;;;24.40;99.90;;;;;;7369918;19;20380;-55
2022/10/30 12:44:14;;;;;;;11.65;5.95;;;24.10;99.90;;;;;;7365999;19;20015;-56
2022/10/30 12:46:47;;;;;;;12.45;6.65;;;24.10;99.90;;;;;;7369455;19;20143;-56
2022/10/30 12:49:19;;;;;;;13.25;6.70;;;24.00;99.90;;;;;;7366253;19;20516;-56
2022/10/30 12:52:12;;;;;;;9.25;5.82;;;24.00;99.90;;;;;;7369275;19;20018;-56
2022/10/30 12:54:38;;;;;;;12.65;6.50;;;24.00;99.90;;;;;;7364804;19;20386;-59
2022/10/30 12:57:14;;;;;;;17.58;8.63;;;24.40;99.90;;;;;;7363363;19;20638;-58
2022/10/30 12:59:48;;;;;;;12.68;7.50;;;24.80;99.90;;;;;;7356644;19;20026;-57
2022/10/30 13:02:39;;;;;;;12.93;6.93;;;24.50;99.90;;;;;;7358270;19;20011;-57
2022/10/30 13:05:43;;;;;;;12.80;8.05;;;24.20;99.90;;;;;;7355801;19;20014;-58
2022/10/30 13:08:33;;;;;;;16.20;8.13;;;24.20;99.90;;;;;;7355806;19;20098;-56